AirNav   Pilot Hours Calculator
 
 509 users online  

DC04 Spirit of Washington Heliport
Washington, District of Columbia, USA

GOING TO WASHINGTON?


FAA INFORMATION EFFECTIVE 02 JANUARY 2020

Location

FAA Identifier: DC04
Lat/Long: 38-52-27.4040N 077-01-16.9150W
38-52.456733N 077-01.281917W
38.8742789,-77.0213653
(estimated)
Elevation: 15 ft. / 5 m (estimated)
Variation: 09W (1985)
Time zone: UTC -5 (UTC -4 during Daylight Saving Time)
Zip code: 20024

Heliport Operations

Heliport use: Private use. Permission required prior to landing
Activation date: 10/1970
Control tower: no
ARTCC: WASHINGTON CENTER
FSS: LEESBURG FLIGHT SERVICE STATION
Attendance: UNATNDD
Wind indicator: no
Segmented circle: no

Heliport Communications

WX ASOS at DCA (1.6 nm SW): 132.65 (703-412-8140)
WX AWOS-3 at CGS (8 nm NE): 121.225 (301-864-5497)
WX AWOS-3 at FME (18 nm NE): 123.925
WX AWOS-3PT at GAI (19 nm N): 128.275 (301-977-2971)

Nearby radio navigation aids

VOR radial/distance  VOR name  Freq  Var
DCAr047/1.1WASHINGTON VOR/DME111.0009W
ADWr309/8.3ANDREWS VORTAC113.1010W
OTTr318/16.4NOTTINGHAM VORTAC113.7010W
AMLr108/21.1ARMEL VOR/DME113.5008W
BALr234/24.5BALTIMORE VORTAC115.1011W
BRVr035/35.8BROOKE VORTAC114.5009W
FDKr161/(36.2)FREDERICK VOR109.0008W
EMIr191/37.3WESTMINSTER VORTAC117.9008W

 
NDB name  Hdg/Dist  Freq  Var  ID
GEORGETOWN134/5.832309WGTN --. - -.
OXONN013/6.533211WDCA -.. -.-. .-
DAVEE027/13.422309WDAA -.. .- .-
ELLICOTT216/27.337111WFND ..-. -. -..

Heliport Services

Airframe service: NONE
Powerplant service: NONE

Runway Information

Helipad H1

Dimensions: 300 x 60 ft. / 91 x 18 m
Surface: asphalt
Latitude: 38-52.456733N
Longitude: 077-01.281917W
Elevation: 15.0 ft.
Traffic pattern: leftleft

Heliport Ownership and Management from official FAA records

Ownership: Privately-owned
Owner: SPIRIT OF WASHINGTON
PIER 4 6TH & WATER STS, SW
WASHINGTON, DC 20024
Phone 202-484-2320
AND A16 - EXTENSION 646.
Manager: BILL FIRTH
PIER 4 6TH ST SW WATER ST
WASHINGTON, DC 20024
Phone 202-484-2320

Additional Remarks

SPIRIT OF BOSTON ASSOCIATION.
FOR CD CTC POTOMAC APCH AT 866-599-3874.

Instrument Procedures

There are no published instrument procedures at DC04.

Some nearby airports with instrument procedures:

KDCA - Ronald Reagan Washington National Airport (2 nm SW)
KCGS - College Park Airport (8 nm NE)
KVKX - Potomac Airfield (8 nm S)
KADW - Joint Base Andrews (8 nm SE)
W32 - Washington Executive Airport/Hyde Field (9 nm SE)
KDAA - Davison Army Airfield (12 nm SW)
W00 - Freeway Airport (12 nm E)
2W5 - Maryland Airport (17 nm S)
KFME - Tipton Airport (18 nm NE)
KGAI - Montgomery County Airpark (19 nm N)
 
Loc | Ops | Rwys | IFR | FBO | Links
Com | Nav | Svcs | Stats | Notes
Area around DC04 (Spirit of Washington Heliport)
 
Road maps at: MapQuest Bing Google
 
Aerial photo
No photo
 
Sectional chart

 
Airport distance calculator
Flying to Spirit of Washington Heliport? Find the distance to fly.

From to DC04

Sunrise and sunset
Times for 18-Jan-2020
 Local
(UTC-5)
 Zulu
(UTC)
Morning civil twilight06:5611:56
Sunrise07:2512:25
Sunset17:1222:12
Evening civil twilight17:4122:41

Current date and time
Zulu (UTC)  18-Jan-2020 10:11:17
Local (UTC-5)  18-Jan-2020 05:11:17
 
METAR
KDCA 
2nm S 
180952Z 15003KT 10SM BKN120 OVC200 M01/M10 A3064 RMK AO2 SLP376 T10111100
KCGS 
8nm NE 
180948Z AUTO 00000KT 10SM BKN120 M03/M13 A3063 RMK AO1 T10291132
KADW 
8nm SE 
180956Z AUTO 00000KT 10SM CLR M03/M10 A3061 RMK AO2 SLP376 T10311098 $
KDAA 
12nm SW 
180956Z AUTO 00000KT 10SM FEW060 SCT110 M02/M08 A3063 RMK AO2 SLP376 T10251078 $
KFME 
17nm NE 
180948Z AUTO 00000KT 10SM SCT120 M03/M07 A3065 RMK AO1
KGAI 
19nm N 
180956Z AUTO 14003KT 10SM BKN110 M03/M11 A3060 RMK AO2 SLP385 T10331111 FZRANO
TAF
KDCA 
2nm S 
180539Z 1806/1912 06006KT P6SM BKN150 FM181000 14004KT P6SM BKN100 FM181200 14005KT 4SM -SN OVC060 FM181500 16008KT 5SM -SNPL OVC070 FM181900 18010KT 4SM -PLRA OVC045 FM182100 19011KT 3SM -RA OVC020 FM190000 20011KT P6SM OVC035
KADW 
8nm SE 
180100Z 1801/1907 VRB04KT 9999 BKN180 QNH3057INS BECMG 1811/1812 16012KT 9000 -SN BKN065 BKN120 620659 QNH3054INS BECMG 1814/1815 18010G15KT 3200 -SN BR BKN005 OVC060 650059 QNH3043INS BECMG 1816/1817 19010G15KT 9999 NSW SCT010 OVC100 QNH3037INS BECMG 1817/1818 18010G20KT 1600 -SN SCT010 OVC030 650309 QNH3022INS BECMG 1820/1821 18015G25KT 6000 -PL SCT004 OVC030 640309 QNH3013INS BECMG 1821/1822 18015G25KT 4800 -PL OVC004 WS020/20040KT 640049 QNH3007INS BECMG 1822/1823 20010KT 3200 -RA BR OVC002
KDAA 
12nm SW 
180200Z 1802/1908 VRB06KT 9999 SCT180 QNH3056INS BECMG 1812/1813 17012G18KT 8000 -SN OVC040 620406 QNH3049INS BECMG 1814/1815 18012G18KT 9999 NSW OVC030 620306 QNH3035INS BECMG 1817/1818 19010KT 8000 -PL OVC010 WS020/20040KT 620109 540204 QNH3005INS BECMG 1823/1824 21009KT 9999 -RA OVC008 WS020/22040KT 620808 540204 QNH2991INS BECMG 1902/1903 21010KT 9999 NSW BKN010 WS020/22045KT 540203 QNH2979INS BECMG 1905/1906 22010KT 9999 BKN015 QNH2975INS TX04/1902Z TNM02/1804Z LAST NO AMDS AFT 1802 NEXT 21
NOTAMs
Click for the latest NOTAMs
NOTAMs are issued by the DoD/FAA and will open in a separate window not controlled by AirNav.

 

 
 

Would you like to see your business listed on this page?

 If your business provides an interesting product or service to pilots, flight crews, aircraft, or users of the Spirit of Washington Heliport, you should consider listing it here.  To start the listing process, click on the button below
 
Add a business
 

Other Pages about Spirit of Washington Heliport

Update a link
 
Copyright © AirNav, LLC. All rights reserved. Privacy Policy  Contact